createdAt,value
2022-10-12T00:01:53.141Z,14.10
2022-10-12T00:04:19.940Z,14.10
2022-10-12T00:06:46.666Z,14.00
2022-10-12T00:09:13.468Z,14.10
2022-10-12T00:11:41.133Z,14.10
2022-10-12T00:14:07.873Z,14.00
2022-10-12T00:16:35.015Z,14.00
2022-10-12T00:19:02.047Z,14.00
2022-10-12T00:21:30.281Z,14.00
2022-10-12T00:23:59.195Z,14.00
2022-10-12T00:26:26.516Z,14.00
2022-10-12T00:29:01.611Z,14.00
2022-10-12T00:31:29.741Z,13.90
2022-10-12T00:33:59.950Z,13.90
2022-10-12T00:36:29.991Z,13.90
2022-10-12T00:38:56.760Z,13.90
2022-10-12T00:41:27.219Z,13.90
2022-10-12T00:43:58.188Z,13.80
2022-10-12T00:46:44.932Z,13.80
2022-10-12T00:49:18.142Z,13.80
2022-10-12T00:51:48.147Z,13.80
2022-10-12T00:54:20.531Z,13.80
2022-10-12T00:56:50.746Z,13.80
2022-10-12T00:59:31.646Z,13.80
2022-10-12T01:01:58.648Z,13.70
2022-10-12T01:04:25.878Z,13.80
2022-10-12T01:06:53.206Z,13.70
2022-10-12T01:09:21.529Z,13.70
2022-10-12T01:11:48.612Z,13.70
2022-10-12T01:14:16.677Z,13.70
2022-10-12T01:17:02.239Z,13.70
2022-10-12T01:20:20.307Z,13.60
2022-10-12T01:23:02.639Z,13.60
2022-10-12T01:26:06.809Z,13.60
2022-10-12T01:29:04.545Z,13.60
2022-10-12T01:31:40.912Z,13.50
2022-10-12T01:34:18.365Z,13.50
2022-10-12T01:36:50.402Z,13.50
2022-10-12T01:39:25.419Z,13.50
2022-10-12T01:41:58.567Z,13.50
2022-10-12T01:44:26.343Z,13.50
2022-10-12T01:46:55.707Z,13.50
2022-10-12T01:49:29.261Z,13.40
2022-10-12T01:52:08.910Z,13.40
2022-10-12T01:55:13.439Z,13.40
2022-10-12T01:57:50.722Z,13.40
2022-10-12T02:00:18.663Z,13.40
2022-10-12T02:03:12.908Z,13.40
2022-10-12T02:05:58.130Z,13.50
2022-10-12T02:08:48.470Z,13.50
2022-10-12T02:11:18.845Z,13.50
2022-10-12T02:13:53.873Z,13.50
2022-10-12T02:16:26.265Z,13.50
2022-10-12T02:18:55.546Z,13.50
2022-10-12T02:21:29.232Z,13.50
2022-10-12T02:23:58.714Z,13.50
2022-10-12T02:26:25.658Z,13.50
2022-10-12T02:28:52.748Z,13.50
2022-10-12T02:31:35.852Z,13.50
2022-10-12T02:34:18.434Z,13.50
2022-10-12T02:37:09.676Z,13.60
2022-10-12T02:39:50.295Z,13.60
2022-10-12T02:42:32.142Z,13.50
2022-10-12T02:45:07.533Z,13.60
2022-10-12T02:47:36.683Z,13.60
2022-10-12T02:50:05.075Z,13.60
2022-10-12T02:52:32.517Z,13.60
2022-10-12T02:54:59.332Z,13.60
2022-10-12T02:57:26.290Z,13.60
2022-10-12T02:59:53.036Z,13.60
2022-10-12T03:02:19.742Z,13.60
2022-10-12T03:04:46.470Z,13.60
2022-10-12T03:07:13.219Z,13.50
2022-10-12T03:09:40.001Z,13.50
2022-10-12T03:12:06.777Z,13.50
2022-10-12T03:14:35.091Z,13.50
2022-10-12T03:17:01.842Z,13.50
2022-10-12T03:19:28.594Z,13.50
2022-10-12T03:21:55.341Z,13.50
2022-10-12T03:24:22.131Z,13.50
2022-10-12T03:26:49.184Z,13.50
2022-10-12T03:29:15.919Z,13.50
2022-10-12T03:31:42.656Z,13.50
2022-10-12T03:34:09.380Z,13.50
2022-10-12T03:36:36.141Z,13.50
2022-10-12T03:39:02.910Z,13.50
2022-10-12T03:41:29.718Z,13.50
2022-10-12T03:43:56.491Z,13.50
2022-10-12T03:46:23.326Z,13.50
2022-10-12T03:48:50.079Z,13.50
2022-10-12T03:51:16.793Z,13.50
2022-10-12T03:53:45.509Z,13.50
2022-10-12T03:56:12.921Z,13.50
2022-10-12T03:58:39.831Z,13.50
2022-10-12T04:01:06.657Z,13.50
2022-10-12T04:03:33.429Z,13.50
2022-10-12T04:06:00.282Z,13.50
2022-10-12T04:08:27.202Z,13.50
2022-10-12T04:10:54.237Z,13.50
2022-10-12T04:13:21.049Z,13.60
2022-10-12T04:15:47.814Z,13.50
2022-10-12T04:18:14.990Z,13.60
2022-10-12T04:20:41.745Z,13.60
2022-10-12T04:23:08.502Z,13.60
2022-10-12T04:25:35.642Z,13.60
2022-10-12T04:28:02.432Z,13.60
2022-10-12T04:30:29.245Z,13.60
2022-10-12T04:32:56.086Z,13.60
2022-10-12T04:35:22.810Z,13.50
2022-10-12T04:37:49.517Z,13.50
2022-10-12T04:40:16.316Z,13.60
2022-10-12T04:42:43.069Z,13.50
2022-10-12T04:45:10.154Z,13.50
2022-10-12T04:47:37.304Z,13.50
2022-10-12T04:50:05.232Z,13.50
2022-10-12T04:52:32.206Z,13.50
2022-10-12T04:54:59.019Z,13.50
2022-10-12T04:57:25.744Z,13.50
2022-10-12T04:59:52.474Z,13.50
2022-10-12T05:02:19.237Z,13.50
2022-10-12T05:04:45.995Z,13.50
2022-10-12T05:07:12.750Z,13.50
2022-10-12T05:09:39.577Z,13.50
2022-10-12T05:12:06.458Z,13.50
2022-10-12T05:14:35.843Z,13.50
2022-10-12T05:17:03.166Z,13.50
2022-10-12T05:19:29.952Z,13.50
2022-10-12T05:21:56.701Z,13.50
2022-10-12T05:24:23.476Z,13.50
2022-10-12T05:26:50.197Z,13.40
2022-10-12T05:29:16.921Z,13.50
2022-10-12T05:31:43.630Z,13.50
2022-10-12T05:34:10.412Z,13.50
2022-10-12T05:36:37.254Z,13.50
2022-10-12T05:39:04.350Z,13.50
2022-10-12T05:41:31.137Z,13.50
2022-10-12T05:43:57.849Z,13.50
2022-10-12T05:46:24.594Z,13.50
2022-10-12T05:48:51.359Z,13.50
2022-10-12T05:51:18.107Z,13.50
2022-10-12T05:53:44.840Z,13.50
2022-10-12T05:56:11.596Z,13.50
2022-10-12T05:58:38.550Z,13.50
2022-10-12T06:01:11.457Z,13.50
2022-10-12T06:03:38.311Z,13.50
2022-10-12T06:06:06.933Z,13.50
2022-10-12T06:08:34.635Z,13.50
2022-10-12T06:11:01.373Z,13.50
2022-10-12T06:13:28.219Z,13.50
2022-10-12T06:15:55.007Z,13.60
2022-10-12T06:18:22.058Z,13.50
2022-10-12T06:20:56.496Z,13.60
2022-10-12T06:23:35.783Z,13.60
2022-10-12T06:26:02.520Z,13.60
2022-10-12T06:28:29.392Z,13.60
2022-10-12T06:30:58.398Z,13.60
2022-10-12T06:33:25.910Z,13.70
2022-10-12T06:35:53.416Z,13.70
2022-10-12T06:38:20.250Z,13.70
2022-10-12T06:40:47.146Z,13.70
2022-10-12T06:43:14.312Z,13.70
2022-10-12T06:45:41.143Z,13.70
2022-10-12T06:48:08.367Z,13.70
2022-10-12T06:50:35.250Z,13.70
2022-10-12T06:53:02.080Z,13.80
2022-10-12T06:55:29.627Z,13.80
2022-10-12T06:57:56.647Z,13.80
2022-10-12T07:00:23.787Z,13.80
2022-10-12T07:02:51.754Z,13.80
2022-10-12T07:05:21.000Z,13.80
2022-10-12T07:07:47.828Z,13.80
2022-10-12T07:10:14.671Z,13.80
2022-10-12T07:12:41.511Z,13.90
2022-10-12T07:15:08.824Z,13.90
2022-10-12T07:17:35.937Z,13.90
2022-10-12T07:20:03.278Z,13.90
2022-10-12T07:22:30.224Z,13.90
2022-10-12T07:24:56.971Z,14.00
2022-10-12T07:27:23.773Z,14.00
2022-10-12T07:29:51.657Z,14.00
2022-10-12T07:32:18.428Z,14.00
2022-10-12T07:34:45.231Z,14.10
2022-10-12T07:37:12.635Z,14.00
2022-10-12T07:39:41.463Z,14.10
2022-10-12T07:42:08.236Z,14.10
2022-10-12T07:44:35.003Z,14.10
2022-10-12T07:47:01.733Z,14.10
2022-10-12T07:49:28.493Z,14.20
2022-10-12T07:51:55.255Z,14.20
2022-10-12T07:54:28.241Z,14.20
2022-10-12T07:56:56.420Z,14.20
2022-10-12T07:59:23.320Z,14.30
2022-10-12T08:01:50.143Z,14.30
2022-10-12T08:04:16.989Z,14.30
2022-10-12T08:06:44.118Z,14.40
2022-10-12T08:09:10.869Z,14.40
2022-10-12T08:11:40.094Z,14.40
2022-10-12T08:14:12.367Z,14.50
2022-10-12T08:16:39.087Z,14.50
2022-10-12T08:19:06.018Z,14.50
2022-10-12T08:21:32.988Z,14.50
2022-10-12T08:23:59.727Z,14.50
2022-10-12T08:26:27.335Z,14.60
2022-10-12T08:28:54.204Z,14.60
2022-10-12T08:31:20.976Z,14.60
2022-10-12T08:33:47.707Z,14.60
2022-10-12T08:36:14.572Z,14.60
2022-10-12T08:38:43.499Z,14.60
2022-10-12T08:41:19.070Z,14.60
2022-10-12T08:44:02.409Z,14.60
2022-10-12T08:46:29.721Z,14.70
2022-10-12T08:49:16.389Z,14.70
2022-10-12T08:51:53.902Z,14.70
2022-10-12T08:54:24.453Z,14.70
2022-10-12T08:56:54.262Z,14.70
2022-10-12T08:59:21.622Z,14.70
2022-10-12T09:02:03.373Z,14.70
2022-10-12T09:05:08.872Z,14.70
2022-10-12T09:07:45.885Z,14.70
2022-10-12T09:10:47.343Z,14.70
2022-10-12T09:13:57.499Z,14.80
2022-10-12T09:16:27.826Z,14.80
2022-10-12T09:19:08.202Z,14.80
2022-10-12T09:21:36.835Z,14.80
2022-10-12T09:24:04.563Z,14.80
2022-10-12T09:26:39.995Z,14.90
2022-10-12T09:29:26.655Z,14.90
2022-10-12T09:32:11.733Z,14.90
2022-10-12T09:34:39.017Z,15.00
2022-10-12T09:37:06.985Z,15.00
2022-10-12T09:39:39.634Z,15.00
2022-10-12T09:42:06.369Z,15.00
2022-10-12T09:44:42.055Z,15.10
2022-10-12T09:47:21.123Z,15.10
2022-10-12T09:49:52.427Z,15.10
2022-10-12T09:52:24.930Z,15.00
2022-10-12T09:55:02.547Z,15.10
2022-10-12T09:57:35.631Z,15.00
2022-10-12T10:00:24.738Z,15.10
2022-10-12T10:02:52.551Z,15.10
2022-10-12T10:05:27.262Z,15.10
2022-10-12T10:08:14.998Z,15.10
2022-10-12T10:10:50.068Z,15.20
2022-10-12T10:13:17.486Z,15.20
2022-10-12T10:15:52.071Z,15.20
2022-10-12T10:18:36.994Z,15.30
2022-10-12T10:21:09.026Z,15.30
2022-10-12T10:23:44.621Z,15.30
2022-10-12T10:26:15.933Z,15.30
2022-10-12T10:28:45.169Z,15.40
2022-10-12T10:31:21.285Z,15.40
2022-10-12T10:34:03.336Z,15.40
2022-10-12T10:36:30.239Z,15.50
2022-10-12T10:39:02.377Z,15.50
2022-10-12T10:41:37.373Z,15.60
2022-10-12T10:44:05.712Z,15.60
2022-10-12T10:46:35.400Z,15.60
2022-10-12T10:49:09.002Z,15.60
2022-10-12T10:51:57.856Z,15.60
2022-10-12T10:54:24.669Z,15.70
2022-10-12T10:56:56.245Z,15.70
2022-10-12T10:59:40.980Z,15.70
2022-10-12T11:02:26.719Z,15.80
2022-10-12T11:05:04.007Z,15.80
2022-10-12T11:07:41.324Z,15.80
2022-10-12T11:10:22.036Z,15.80
2022-10-12T11:12:55.307Z,15.80
2022-10-12T11:15:29.059Z,15.90
2022-10-12T11:18:03.477Z,15.90
2022-10-12T11:20:46.939Z,15.90
2022-10-12T11:23:16.446Z,15.90
2022-10-12T11:26:01.544Z,15.90
2022-10-12T11:28:32.539Z,16.00
2022-10-12T11:31:00.431Z,16.00
2022-10-12T11:33:39.953Z,16.00
2022-10-12T11:36:11.204Z,16.10
2022-10-12T11:38:55.627Z,16.10
2022-10-12T11:41:35.814Z,16.10
2022-10-12T11:44:30.621Z,16.20
2022-10-12T11:47:04.582Z,16.20
2022-10-12T11:49:46.525Z,16.20
2022-10-12T11:52:13.878Z,16.30
2022-10-12T11:55:24.935Z,16.30
2022-10-12T11:57:55.279Z,16.30
2022-10-12T12:00:36.154Z,16.40
2022-10-12T12:03:20.753Z,16.40
2022-10-12T12:05:47.575Z,16.50
2022-10-12T12:08:55.361Z,16.50
2022-10-12T12:11:25.526Z,16.50
2022-10-12T12:14:21.440Z,16.50
2022-10-12T12:16:49.561Z,16.60
2022-10-12T12:19:36.268Z,16.60
2022-10-12T12:22:23.378Z,16.70
2022-10-12T12:25:04.024Z,16.70
2022-10-12T12:27:38.874Z,16.70
2022-10-12T12:30:22.832Z,16.70
2022-10-12T12:33:22.049Z,16.70
2022-10-12T12:35:59.014Z,16.80
2022-10-12T12:38:46.311Z,16.70
2022-10-12T12:41:16.484Z,16.80
2022-10-12T12:43:52.294Z,16.90
2022-10-12T12:46:20.009Z,16.90
2022-10-12T12:48:46.694Z,16.90
2022-10-12T12:51:17.109Z,17.00
2022-10-12T12:53:48.141Z,17.00
2022-10-12T12:56:33.870Z,16.90
2022-10-12T12:59:41.407Z,16.90
2022-10-12T13:02:28.058Z,16.90
2022-10-12T13:05:06.666Z,16.90
2022-10-12T13:07:52.861Z,16.80
2022-10-12T13:10:53.465Z,16.80
2022-10-12T13:13:29.474Z,16.70
2022-10-12T13:16:02.057Z,16.80
2022-10-12T13:18:48.450Z,16.80
2022-10-12T13:21:29.711Z,16.80
2022-10-12T13:24:15.119Z,16.80
2022-10-12T13:26:45.793Z,16.90
2022-10-12T13:29:21.859Z,16.90
2022-10-12T13:31:53.081Z,16.90
2022-10-12T13:34:24.692Z,17.00
2022-10-12T13:37:09.560Z,17.00
2022-10-12T13:39:43.164Z,17.00
2022-10-12T13:42:13.600Z,17.00
2022-10-12T13:44:42.009Z,17.00
2022-10-12T13:47:32.758Z,17.10
2022-10-12T13:50:00.360Z,17.00
2022-10-12T13:52:32.428Z,17.00
2022-10-12T13:55:00.619Z,17.10
2022-10-12T13:57:31.865Z,17.00
2022-10-12T14:00:09.542Z,17.00
2022-10-12T14:02:36.609Z,17.00
2022-10-12T14:05:05.435Z,17.00
2022-10-12T14:07:35.663Z,17.00
2022-10-12T14:10:12.747Z,17.10
2022-10-12T14:12:40.240Z,17.00
2022-10-12T14:15:07.979Z,17.00
2022-10-12T14:17:45.910Z,17.00
2022-10-12T14:20:37.497Z,17.00
2022-10-12T14:23:14.252Z,17.00
2022-10-12T14:25:55.800Z,17.00
2022-10-12T14:28:32.686Z,17.00
2022-10-12T14:30:59.539Z,17.00
2022-10-12T14:33:27.806Z,17.00
2022-10-12T14:36:22.902Z,17.00
2022-10-12T14:38:51.084Z,17.00
2022-10-12T14:41:44.712Z,17.00
2022-10-12T14:44:19.717Z,17.00
2022-10-12T14:47:05.736Z,17.00
2022-10-12T14:49:44.705Z,17.00
2022-10-12T14:52:25.914Z,17.10
2022-10-12T14:57:31.153Z,17.10
2022-10-12T14:59:58.823Z,17.20
2022-10-12T15:02:31.507Z,17.20
2022-10-12T15:04:59.542Z,17.30
2022-10-12T15:07:32.014Z,17.30
2022-10-12T15:09:59.406Z,17.40
2022-10-12T15:12:26.942Z,17.40
2022-10-12T15:14:59.150Z,17.50
2022-10-12T15:17:25.979Z,17.50
2022-10-12T15:19:53.244Z,17.50
2022-10-12T15:22:26.029Z,17.50
2022-10-12T15:24:54.105Z,17.60
2022-10-12T15:27:21.441Z,17.60
2022-10-12T15:29:48.448Z,17.60
2022-10-12T15:32:17.592Z,17.60
2022-10-12T15:34:45.289Z,17.50
2022-10-12T15:37:12.226Z,17.50
2022-10-12T15:39:39.086Z,17.50
2022-10-12T15:42:05.934Z,17.50
2022-10-12T15:44:39.498Z,17.40
2022-10-12T15:47:06.222Z,17.40
2022-10-12T15:49:32.987Z,17.40
2022-10-12T15:52:00.753Z,17.30
2022-10-12T15:54:27.684Z,17.30
2022-10-12T15:56:54.492Z,17.20
2022-10-12T15:59:21.228Z,17.20
2022-10-12T16:01:48.130Z,17.10
2022-10-12T16:04:15.564Z,17.10
2022-10-12T16:06:42.301Z,17.00
2022-10-12T16:09:09.160Z,17.00
2022-10-12T16:11:35.936Z,16.90
2022-10-12T16:14:02.695Z,16.80
2022-10-12T16:16:31.812Z,16.70
2022-10-12T16:18:58.649Z,16.70
2022-10-12T16:21:25.499Z,16.60
2022-10-12T16:23:52.331Z,16.50
2022-10-12T16:26:19.195Z,16.50
2022-10-12T16:28:46.001Z,16.40
2022-10-12T16:31:17.446Z,16.30
2022-10-12T16:33:45.074Z,16.30
2022-10-12T16:36:14.938Z,16.10
2022-10-12T16:38:42.916Z,16.10
2022-10-12T16:41:15.004Z,16.10
2022-10-12T16:43:41.858Z,16.00
2022-10-12T16:46:09.324Z,15.90
2022-10-12T16:48:36.799Z,15.80
2022-10-12T16:51:08.250Z,15.80
2022-10-12T16:53:35.294Z,15.70
2022-10-12T16:56:02.451Z,15.60
2022-10-12T16:58:29.514Z,15.60
2022-10-12T17:00:56.671Z,15.50
2022-10-12T17:03:24.867Z,15.50
2022-10-12T17:06:00.868Z,15.40
2022-10-12T17:08:27.955Z,15.30
2022-10-12T17:10:55.471Z,15.30
2022-10-12T17:13:22.291Z,15.20
2022-10-12T17:15:49.014Z,15.20
2022-10-12T17:18:15.795Z,15.20
2022-10-12T17:20:42.568Z,15.10
2022-10-12T17:23:09.299Z,15.10
2022-10-12T17:25:36.091Z,15.10
2022-10-12T17:28:02.852Z,15.00
2022-10-12T17:30:29.860Z,15.00
2022-10-12T17:32:56.586Z,15.00
2022-10-12T17:35:23.351Z,14.90
2022-10-12T17:37:50.079Z,14.90
2022-10-12T17:40:16.815Z,14.80
2022-10-12T17:42:43.622Z,14.80
2022-10-12T17:45:10.818Z,14.70
2022-10-12T17:47:39.163Z,14.60
2022-10-12T17:50:06.259Z,14.60
2022-10-12T17:52:37.352Z,14.60
2022-10-12T17:55:04.423Z,14.50
2022-10-12T17:57:31.208Z,14.50
2022-10-12T17:59:58.015Z,14.50
2022-10-12T18:02:24.816Z,14.40
2022-10-12T18:04:51.555Z,14.40
2022-10-12T18:07:18.522Z,14.30
2022-10-12T18:09:45.760Z,14.30
2022-10-12T18:12:12.566Z,14.30
2022-10-12T18:14:39.358Z,14.30
2022-10-12T18:17:06.136Z,14.20
2022-10-12T18:19:32.860Z,14.20
2022-10-12T18:21:59.588Z,14.10
2022-10-12T18:24:26.532Z,14.10
2022-10-12T18:26:53.324Z,14.00
2022-10-12T18:29:21.538Z,14.00
2022-10-12T18:31:48.586Z,14.00
2022-10-12T18:34:15.369Z,14.00
2022-10-12T18:36:42.793Z,13.90
2022-10-12T18:39:10.018Z,13.80
2022-10-12T18:41:36.822Z,13.80
2022-10-12T18:44:03.782Z,13.80
2022-10-12T18:46:34.035Z,13.70
2022-10-12T18:49:04.941Z,13.70
2022-10-12T18:51:34.447Z,13.70
2022-10-12T18:54:02.063Z,13.60
2022-10-12T18:56:29.978Z,13.60
2022-10-12T18:58:59.581Z,13.50
2022-10-12T19:01:28.886Z,13.50
2022-10-12T19:03:57.621Z,13.50
2022-10-12T19:06:31.210Z,13.40
2022-10-12T19:08:58.775Z,13.40
2022-10-12T19:11:26.998Z,13.40
2022-10-12T19:13:57.000Z,13.40
2022-10-12T19:16:23.984Z,13.30
2022-10-12T19:18:56.536Z,13.30
2022-10-12T19:21:23.523Z,13.30
2022-10-12T19:23:50.404Z,13.30
2022-10-12T19:26:19.548Z,13.30
2022-10-12T19:28:47.145Z,13.20
2022-10-12T19:31:20.474Z,13.20
2022-10-12T19:33:47.912Z,13.20
2022-10-12T19:36:16.852Z,13.20
2022-10-12T19:38:45.910Z,13.20
2022-10-12T19:41:13.144Z,13.20
2022-10-12T19:43:40.294Z,13.10
2022-10-12T19:46:09.833Z,13.10
2022-10-12T19:48:38.103Z,13.10
2022-10-12T19:51:07.692Z,13.10
2022-10-12T19:53:34.965Z,13.10
2022-10-12T19:56:07.113Z,13.10
2022-10-12T19:58:34.356Z,13.10
2022-10-12T20:01:02.724Z,13.00
2022-10-12T20:03:29.566Z,13.00
2022-10-12T20:05:56.383Z,13.10
2022-10-12T20:08:23.283Z,13.00
2022-10-12T20:10:50.034Z,13.00
2022-10-12T20:13:16.944Z,13.00
2022-10-12T20:15:43.737Z,12.90
2022-10-12T20:18:10.512Z,12.90
2022-10-12T20:20:42.455Z,12.80
2022-10-12T20:23:09.313Z,12.80
2022-10-12T20:25:41.338Z,12.80
2022-10-12T20:28:08.331Z,12.70
2022-10-12T20:30:35.339Z,12.80
2022-10-12T20:33:02.373Z,12.70
2022-10-12T20:35:29.477Z,12.70
2022-10-12T20:37:56.387Z,12.60
2022-10-12T20:40:23.615Z,12.70
2022-10-12T20:42:50.364Z,12.60
2022-10-12T20:45:17.299Z,12.60
2022-10-12T20:47:44.655Z,12.60
2022-10-12T20:50:13.403Z,12.60
2022-10-12T20:52:43.239Z,12.60
2022-10-12T20:55:10.800Z,12.50
2022-10-12T20:57:37.607Z,12.50
2022-10-12T21:00:06.031Z,12.50
2022-10-12T21:02:33.594Z,12.40
2022-10-12T21:05:00.358Z,12.40
2022-10-12T21:07:27.090Z,12.40
2022-10-12T21:09:53.813Z,12.40
2022-10-12T21:12:21.110Z,12.40
2022-10-12T21:14:48.236Z,12.50
2022-10-12T21:17:15.289Z,12.50
2022-10-12T21:19:42.166Z,12.40
2022-10-12T21:22:08.908Z,12.50
2022-10-12T21:24:35.841Z,12.50
2022-10-12T21:27:03.062Z,12.40
2022-10-12T21:29:30.114Z,12.40
2022-10-12T21:31:57.233Z,12.40
2022-10-12T21:34:24.299Z,12.40
2022-10-12T21:36:51.049Z,12.40
2022-10-12T21:39:17.928Z,12.30
2022-10-12T21:41:44.723Z,12.30
2022-10-12T21:44:12.398Z,12.30
2022-10-12T21:46:39.487Z,12.30
2022-10-12T21:49:07.964Z,12.30
2022-10-12T21:51:36.726Z,12.30
2022-10-12T21:54:07.451Z,12.30
2022-10-12T21:56:36.355Z,12.30
2022-10-12T21:59:04.811Z,12.30
2022-10-12T22:01:37.127Z,12.30
2022-10-12T22:04:07.561Z,12.30
2022-10-12T22:06:35.154Z,12.30
2022-10-12T22:09:22.313Z,12.30
2022-10-12T22:11:50.247Z,12.30
2022-10-12T22:14:18.579Z,12.30
2022-10-12T22:16:45.873Z,12.30
2022-10-12T22:19:18.578Z,12.30
2022-10-12T22:21:47.386Z,12.30
2022-10-12T22:24:14.351Z,12.30
2022-10-12T22:26:41.526Z,12.30
2022-10-12T22:29:08.698Z,12.30
2022-10-12T22:31:35.985Z,12.30
2022-10-12T22:34:03.008Z,12.30
2022-10-12T22:36:33.995Z,12.30
2022-10-12T22:39:03.386Z,12.40
2022-10-12T22:41:30.174Z,12.40
2022-10-12T22:43:57.132Z,12.40
2022-10-12T22:46:25.727Z,12.40
2022-10-12T22:48:53.618Z,12.40
2022-10-12T22:51:33.422Z,12.40
2022-10-12T22:54:00.924Z,12.40
2022-10-12T22:56:28.168Z,12.40
2022-10-12T22:59:00.513Z,12.40
2022-10-12T23:01:27.939Z,12.30
2022-10-12T23:03:55.836Z,12.30
2022-10-12T23:06:23.648Z,12.30
2022-10-12T23:08:50.400Z,12.30
2022-10-12T23:11:23.404Z,12.30
2022-10-12T23:13:50.543Z,12.30
2022-10-12T23:16:26.073Z,12.30
2022-10-12T23:19:04.089Z,12.20
2022-10-12T23:21:32.641Z,12.20
2022-10-12T23:24:00.419Z,12.20
2022-10-12T23:26:29.055Z,12.10
2022-10-12T23:28:56.055Z,12.20
2022-10-12T23:31:25.013Z,12.10
2022-10-12T23:34:00.425Z,12.10
2022-10-12T23:36:27.548Z,12.10
2022-10-12T23:38:54.733Z,12.10
2022-10-12T23:41:21.603Z,12.10
2022-10-12T23:43:48.539Z,12.10
2022-10-12T23:46:15.299Z,12.10
2022-10-12T23:48:42.056Z,12.10
2022-10-12T23:51:09.660Z,12.10
2022-10-12T23:53:37.367Z,12.20
2022-10-12T23:56:04.988Z,12.20
2022-10-12T23:58:31.738Z,12.30
